首页
METAR-TAF:

METAR-TAF

机场 :

墨爾本, 佛罗里达州, 美国

纬度: 28-06-10N, 经度: 080-38-45W, 海拔: 10米

当前天气观测

该预报发布于51分钟前的04:53 UTC
风速6节,风向西
温度 24°C
湿度 94%
气压 1020 hPa
能見度: 16.1公里
天空无云

METAR: KMLB 080453Z AUTO 26006KT 10SM CLR 24/23 A3012 RMK AO2 SLP198 T02440233 403220239

时间: 01:44 (05:44 UTC)

预报

该预报发布于20分钟前的05:24 UTC
预报有效从08日的 06点(UTC)到 09日的 06点(UTC)
风速3节,风向多变
能見度: 10公里
散云层高于25000英尺
从 08日的 1500点(UTC)
风速6节,风向东转东北
能見度: 10公里
散云层高于3000英尺
散云层高于25000英尺
附近有阵雨
从 08日的 1800点(UTC)
风速9节,风向
能見度: 10公里
散云层高于3500英尺
散云层高于25000英尺
从 09日的 0100点(UTC)
风速5节,风向
能見度: 10公里
散云层高于25000英尺

TAF: KMLB 080524Z 0806/0906 VRB03KT P6SM SCT250 FM081500 06006KT P6SM VCSH SCT030 SCT250 FM081800 09009KT P6SM SCT035 SCT250 FM090100 10005KT P6SM SCT250

超过4000个机场的气象观测和天气预报(METAR&TAF报告)。

可查询的气象台以黄色和红色小点在地图上表示。

将鼠标移到小点上方,可查看气象台名称。

然后点击查看天气观测和预报。

如需切换地图:点击带黑十字的绿色按钮放大地图;点击带横线的绿色按钮缩小地图;或者点击绿色箭头查看邻近地区的地图。


METAR-TAF: